DEN weather

Denver International Airport
Denver, Colorado, United States

Public forecast

Using degrees Fahrenheit for public forecast. Weather courtesy of forecast.io.

METAR (pilot weather report)

Retrieved 2019/02/17 12:53 UTC (32 minutes ago):

KDEN 171253Z 22008KT 10SM FEW100 SCT220 M10/M17 A2975 RMK AO2 SLP113 T11001167

TAF (pilot weather forecast)

Retrieved 2019/02/17 12:45 UTC (40 minutes ago):

TAF KDEN 171142Z 1712/1818 24007KT P6SM FEW080 SCT120 FM171500 17006KT P6SM FEW080 SCT120 FM171800 06007KT P6SM FEW080 SCT120 FM172100 08014G22KT P6SM SCT050 BKN080 PROB30 1723/1803 3SM -SN OVC025 FM180300 07012KT 3SM -SN BR OVC012 FM180600 07009KT 2SM -SN BR OVC008 FM180800 09009KT 1SM -SN BR OVC005 FM181600 11012KT 3SM -SN BR OVC012